NCAR-RAP Real-Time Weather Data

Output produced by METARs form (14 October 2019  22:33 UTC)
found at http://weather.rap.ucar.edu/surface/
 
KPVD 142151Z 17004KT 10SM FEW025 16/14 A2992 RMK AO2 SLP131 T01610144
KPVD 142051Z 17008KT 10SM FEW025 18/14 A2990 RMK AO2 SLP126 T01830144 55012
KPVD 142027Z 17008KT 10SM SCT025 19/14 A2989 RMK AO2 T01940144
KPVD 141951Z 17006KT 10SM BKN023 20/14 A2989 RMK AO2 SLP123 T02000139
KPVD 141920Z 18005KT 10SM BKN022 18/14 A2990 RMK AO2 T01780144
KPVD 141904Z 18006KT 10SM SCT023 18/14 A2990 RMK AO2 T01830144
KPVD 141851Z 21006KT 10SM BKN021 19/14 A2991 RMK AO2 SLP127 T01890144
KPVD 141804Z 20003KT 10SM BKN019 BKN041 18/14 A2993 RMK AO2 T01780144
KPVD 141751Z 22004KT 10SM FEW020 SCT025 BKN042 19/14 A2994 RMK AO2 SLP137 T01890144 10189 20122 58019
KPVD 141651Z VRB04KT 10SM BKN019 OVC023 17/14 A2996 RMK AO2 SLP145 T01720139
KPVD 141613Z 00000KT 10SM SCT012 OVC021 17/13 A2997 RMK AO2 T01670133
KPVD 141551Z 28003KT 10SM BKN012 OVC021 16/13 A2998 RMK AO2 SLP152 T01610133
KPVD 141515Z 25003KT 10SM OVC011 16/13 A2999 RMK AO2 T01560128
KPVD 141451Z 00000KT 10SM OVC009 16/13 A2999 RMK AO2 SLP156 T01560133 58003
KPVD 141403Z 00000KT 10SM OVC009 15/13 A3001 RMK AO2 T01500128
KPVD 141351Z 00000KT 10SM OVC010 14/13 A3000 RMK AO2 SLP160 T01440128
KPVD 141251Z 01003KT 10SM BKN010 BKN037 14/12 A3001 RMK AO2 SLP163 T01390117
KPVD 141228Z 00000KT 10SM BKN010 OVC038 13/11 A3002 RMK AO2 T01280111
KPVD 141151Z 00000KT 10SM FEW009 SCT013 BKN038 12/11 A3000 RMK AO2 SLP159 60000 T01220111 10122 20106 55001
KPVD 141143Z 00000KT 10SM SCT009 BKN013 BKN036 12/11 A3000 RMK AO2 T01220111
KPVD 141058Z 00000KT 10SM OVC009 12/11 A3000 RMK AO2 T01170111
KPVD 141051Z 00000KT 10SM OVC011 12/11 A3000 RMK AO2 SLP158 T01170111
KPVD 141032Z 00000KT 10SM BKN011 OVC046 12/11 A3000 RMK AO2 T01170106
KPVD 140951Z 00000KT 10SM BKN048 12/11 A2999 RMK AO2 SLP157 T01170106
KPVD 140851Z AUTO 00000KT 10SM BKN050 OVC060 11/11 A3001 RMK AO2 RAB0753E26 SLP161 P0000 60000 T01110106 56014
KPVD 140751Z AUTO 29003KT 10SM BKN075 OVC095 11/09 A3001 RMK AO2 SLP161 T01110094
KPVD 140651Z AUTO 00000KT 10SM SCT080 OVC095 11/09 A3002 RMK AO2 SLP167 T01060094
KPVD 140551Z AUTO 00000KT 10SM FEW065 BKN080 OVC120 11/09 A3005 RMK AO2 SLP174 T01110094 10128 20094 51004
KPVD 140451Z AUTO 00000KT 10SM BKN085 10/09 A3004 RMK AO2 SLP172 T01000089 402000089
KPVD 140351Z 00000KT 10SM FEW090 SCT110 SCT190 BKN230 11/08 A3004 RMK AO2 SLP173 LAST T01060083
KPVD 140251Z COR 00000KT 10SM FEW110 FEW190 BKN230 BKN300 11/08 A3003 RMK AO2 SLP170 T01060083 58004
KPVD 140151Z 25004KT 10SM FEW190 BKN230 BKN300 11/08 A3005 RMK AO2 SLP176 T01110083
KPVD 140051Z 24004KT 10SM SCT190 SCT250 BKN300 11/09 A3005 RMK AO2 SLP177 T01110094
KPVD 132351Z 00000KT 10SM FEW150 BKN250 BKN300 13/10 A3005 RMK AO2 SLP175 T01280100 10200 20122 53001
KPVD 132251Z 18003KT 10SM FEW100 FEW200 BKN250 BKN300 14/11 A3004 RMK AO2 SLP171 T01440106
KPVD 132151Z 19004KT 10SM FEW035 FEW100 SCT200 SCT250 BKN300 16/11 A3004 RMK AO2 SLP173 T01560106
KPVD 132051Z 29005KT 10SM FEW049 FEW100 SCT200 SCT250 BKN300 19/07 A3004 RMK AO2 SLP173 T01890067 55002
KPVD 131951Z 26006KT 10SM FEW046 FEW200 BKN250 BKN300 20/08 A3004 RMK AO2 SLP172 T02000078
KPVD 131851Z 27005KT 10SM FEW048 BKN250 BKN300 19/07 A3004 RMK AO2 SLP173 T01890072
KPVD 131751Z 21006KT 10SM FEW045 BKN250 19/08 A3005 RMK AO2 SLP175 T01890083 10194 20111 58008
KPVD 131651Z 29004KT 10SM FEW045 BKN250 19/09 A3007 RMK AO2 SLP182 T01890094
KPVD 131551Z VRB03KT 10SM FEW055 BKN250 18/09 A3007 RMK AO2 SLP183 T01780089
KPVD 131451Z 31007KT 10SM SCT047 BKN250 17/09 A3007 RMK AO2 SLP184 T01720094 51009
KPVD 131351Z 31006KT 10SM FEW050 SCT250 16/08 A3007 RMK AO2 SLP182 T01560083
KPVD 131251Z 30007KT 10SM FEW050 SCT250 14/09 A3006 RMK AO2 SLP180 T01440094
KPVD 131151Z 29004KT 10SM SCT050 SCT250 11/10 A3005 RMK AO2 SLP175 T01110100 10111 20089 53018
KPVD 131051Z 00000KT 10SM FEW020 FEW250 09/09 A3003 RMK AO2 SLP168 T00940089
KPVD 130951Z 25003KT 10SM FEW020 09/09 A3001 RMK AO2 SLP161 T00890089
KPVD 130851Z 00000KT 10SM SCT049 BKN055 10/09 A3000 RMK AO2 SLP157 T01000094 53003
KPVD 130751Z 00000KT 10SM OVC047 10/10 A2999 RMK AO2 SLP156 T01000100
KPVD 130651Z 00000KT 10SM CLR 09/09 A2999 RMK AO2 SLP154 T00940089
KPVD 130551Z 26004KT 10SM CLR 10/09 A2999 RMK AO2 SLP154 T01000094 10133 20100 53002
KPVD 130451Z 00000KT 10SM CLR 11/09 A2998 RMK AO2 SLP151 T01110094 401440106
KPVD 130351Z 25003KT 10SM SCT015 SCT120 12/10 A2999 RMK AO2 SLP155 LAST T01220100
KPVD 130251Z COR 33003KT 10SM OVC015 13/10 A2998 RMK AO2 BINOVC SLP153 T01280100 53004
KPVD 130151Z 04004KT 10SM OVC016 13/10 A2997 RMK AO2 SLP150 T01280100
KPVD 130051Z 03009KT 10SM OVC016 13/10 A2998 RMK AO2 SLP150 T01280100
KPVD 122351Z 36007KT 10SM OVC015 13/10 A2997 RMK AO2 SLP149 T01330100 10139 20133 51013
KPVD 122251Z 36005KT 10SM OVC015 13/10 A2996 RMK AO2 SLP145 T01330100